sensor_id;sensor_type;location;lat;lon;timestamp;pressure;altitude;pressure_sealevel;temperature;humidity
17764;BME280;22245;52.832;13.816;2023-04-25T00:02:39;100326.94;;;9.44;69.14
17764;BME280;22245;52.832;13.816;2023-04-25T00:06:01;100329.00;;;9.40;69.42
17764;BME280;22245;52.832;13.816;2023-04-25T00:09:23;100327.31;;;9.39;69.64
17764;BME280;22245;52.832;13.816;2023-04-25T00:12:46;100329.28;;;9.37;69.49
17764;BME280;22245;52.832;13.816;2023-04-25T00:16:07;100325.78;;;9.37;69.88
17764;BME280;22245;52.832;13.816;2023-04-25T00:19:29;100317.50;;;9.30;70.11
17764;BME280;22245;52.832;13.816;2023-04-25T00:22:50;100322.09;;;9.28;70.29
17764;BME280;22245;52.832;13.816;2023-04-25T00:26:13;100316.09;;;9.26;70.44
17764;BME280;22245;52.832;13.816;2023-04-25T00:29:36;100316.91;;;9.26;70.33
17764;BME280;22245;52.832;13.816;2023-04-25T00:32:58;100316.78;;;9.28;70.23
17764;BME280;22245;52.832;13.816;2023-04-25T00:36:20;100314.84;;;9.30;70.19
17764;BME280;22245;52.832;13.816;2023-04-25T00:39:42;100312.19;;;9.30;69.80
17764;BME280;22245;52.832;13.816;2023-04-25T00:43:04;100311.19;;;9.31;69.91
17764;BME280;22245;52.832;13.816;2023-04-25T00:46:27;100312.88;;;9.32;69.90
17764;BME280;22245;52.832;13.816;2023-04-25T00:49:49;100311.19;;;9.31;69.66
17764;BME280;22245;52.832;13.816;2023-04-25T00:53:10;100316.41;;;9.33;69.86
17764;BME280;22245;52.832;13.816;2023-04-25T00:56:32;100316.94;;;9.36;69.64
17764;BME280;22245;52.832;13.816;2023-04-25T00:59:55;100307.72;;;9.40;69.21
17764;BME280;22245;52.832;13.816;2023-04-25T01:03:18;100313.75;;;9.43;69.23
17764;BME280;22245;52.832;13.816;2023-04-25T01:06:41;100318.09;;;9.44;68.83
17764;BME280;22245;52.832;13.816;2023-04-25T01:10:03;100317.81;;;9.47;68.91
17764;BME280;22245;52.832;13.816;2023-04-25T01:13:26;100315.47;;;9.53;68.88
17764;BME280;22245;52.832;13.816;2023-04-25T01:16:48;100318.00;;;9.55;68.36
17764;BME280;22245;52.832;13.816;2023-04-25T01:20:12;100307.09;;;9.58;67.89
17764;BME280;22245;52.832;13.816;2023-04-25T01:23:37;100308.78;;;9.59;67.71
17764;BME280;22245;52.832;13.816;2023-04-25T01:27:00;100308.47;;;9.52;67.37
17764;BME280;22245;52.832;13.816;2023-04-25T01:30:23;100304.81;;;9.44;67.34
17764;BME280;22245;52.832;13.816;2023-04-25T01:33:45;100304.97;;;9.42;67.74
17764;BME280;22245;52.832;13.816;2023-04-25T01:37:07;100307.72;;;9.40;67.70
17764;BME280;22245;52.832;13.816;2023-04-25T01:40:31;100312.88;;;9.32;67.63
17764;BME280;22245;52.832;13.816;2023-04-25T01:43:55;100308.97;;;9.36;68.00
17764;BME280;22245;52.832;13.816;2023-04-25T01:47:16;100321.16;;;9.39;67.69
17764;BME280;22245;52.832;13.816;2023-04-25T01:50:39;100317.38;;;9.41;67.22
17764;BME280;22245;52.832;13.816;2023-04-25T01:54:01;100323.41;;;9.44;67.19
17764;BME280;22245;52.832;13.816;2023-04-25T01:57:24;100324.84;;;9.48;67.07
17764;BME280;22245;52.832;13.816;2023-04-25T02:00:46;100327.50;;;9.48;66.93
17764;BME280;22245;52.832;13.816;2023-04-25T02:04:08;100325.38;;;9.41;66.56
17764;BME280;22245;52.832;13.816;2023-04-25T02:07:32;100330.25;;;9.36;66.63
17764;BME280;22245;52.832;13.816;2023-04-25T02:10:54;100330.13;;;9.38;67.24
17764;BME280;22245;52.832;13.816;2023-04-25T02:14:18;100335.28;;;9.39;66.98
17764;BME280;22245;52.832;13.816;2023-04-25T02:18:00;100334.59;;;9.37;66.91
17764;BME280;22245;52.832;13.816;2023-04-25T02:21:22;100332.63;;;9.39;66.61
17764;BME280;22245;52.832;13.816;2023-04-25T02:24:46;100330.41;;;9.45;66.86
17764;BME280;22245;52.832;13.816;2023-04-25T02:28:07;100332.09;;;9.46;66.26
17764;BME280;22245;52.832;13.816;2023-04-25T02:31:31;100331.53;;;9.42;66.41
17764;BME280;22245;52.832;13.816;2023-04-25T02:34:53;100326.34;;;9.40;66.30
17764;BME280;22245;52.832;13.816;2023-04-25T02:38:15;100332.34;;;9.43;66.65
17764;BME280;22245;52.832;13.816;2023-04-25T02:41:37;100325.78;;;9.37;66.23
17764;BME280;22245;52.832;13.816;2023-04-25T02:44:58;100331.22;;;9.35;66.54
17764;BME280;22245;52.832;13.816;2023-04-25T02:48:22;100331.09;;;9.37;66.82
17764;BME280;22245;52.832;13.816;2023-04-25T02:51:43;100324.38;;;9.33;66.72
17764;BME280;22245;52.832;13.816;2023-04-25T02:55:05;100329.22;;;9.27;66.83
17764;BME280;22245;52.832;13.816;2023-04-25T02:58:28;100333.97;;;9.24;66.70
17764;BME280;22245;52.832;13.816;2023-04-25T03:01:49;100332.56;;;9.20;66.86
17764;BME280;22245;52.832;13.816;2023-04-25T03:05:12;100333.66;;;9.17;67.08
17764;BME280;22245;52.832;13.816;2023-04-25T03:08:33;100335.47;;;9.17;66.78
17764;BME280;22245;52.832;13.816;2023-04-25T03:11:55;100331.41;;;9.12;66.89
17764;BME280;22245;52.832;13.816;2023-04-25T03:15:16;100326.38;;;9.09;66.85
17764;BME280;22245;52.832;13.816;2023-04-25T03:18:37;100322.97;;;9.07;67.30
17764;BME280;22245;52.832;13.816;2023-04-25T03:22:00;100324.66;;;9.08;67.18
17764;BME280;22245;52.832;13.816;2023-04-25T03:25:22;100330.22;;;9.05;67.30
17764;BME280;22245;52.832;13.816;2023-04-25T03:28:44;100331.78;;;9.08;67.38
17764;BME280;22245;52.832;13.816;2023-04-25T03:32:06;100326.47;;;9.08;67.14
17764;BME280;22245;52.832;13.816;2023-04-25T03:35:28;100324.19;;;9.03;67.43
17764;BME280;22245;52.832;13.816;2023-04-25T03:38:51;100333.75;;;9.06;67.64
17764;BME280;22245;52.832;13.816;2023-04-25T03:42:14;100325.88;;;9.04;67.48
17764;BME280;22245;52.832;13.816;2023-04-25T03:45:37;100329.25;;;9.06;67.51
17764;BME280;22245;52.832;13.816;2023-04-25T03:48:59;100327.56;;;9.05;67.27
17764;BME280;22245;52.832;13.816;2023-04-25T03:52:34;100330.50;;;9.02;67.58
17764;BME280;22245;52.832;13.816;2023-04-25T03:55:57;100334.72;;;9.05;67.49
17764;BME280;22245;52.832;13.816;2023-04-25T03:59:19;100346.03;;;9.07;67.76
17764;BME280;22245;52.832;13.816;2023-04-25T04:02:41;100338.78;;;9.09;67.92
17764;BME280;22245;52.832;13.816;2023-04-25T04:06:06;100343.13;;;9.10;67.73
17764;BME280;22245;52.832;13.816;2023-04-25T04:09:40;100337.56;;;9.13;67.26
17764;BME280;22245;52.832;13.816;2023-04-25T04:13:09;100352.78;;;9.11;67.13
17764;BME280;22245;52.832;13.816;2023-04-25T04:16:30;100360.31;;;9.06;67.29
17764;BME280;22245;52.832;13.816;2023-04-25T04:19:53;100363.34;;;9.01;67.74
17764;BME280;22245;52.832;13.816;2023-04-25T04:23:16;100359.97;;;8.99;67.94
17764;BME280;22245;52.832;13.816;2023-04-25T04:26:37;100354.66;;;8.99;68.06
17764;BME280;22245;52.832;13.816;2023-04-25T04:30:18;100368.91;;;8.98;68.17
17764;BME280;22245;52.832;13.816;2023-04-25T04:33:48;100366.97;;;9.00;68.58
17764;BME280;22245;52.832;13.816;2023-04-25T04:37:11;100370.94;;;9.06;67.91
17764;BME280;22245;52.832;13.816;2023-04-25T04:40:34;100364.19;;;9.02;67.96
17764;BME280;22245;52.832;13.816;2023-04-25T04:44:03;100372.88;;;9.04;68.38
17764;BME280;22245;52.832;13.816;2023-04-25T04:47:38;100373.69;;;9.04;68.08
17764;BME280;22245;52.832;13.816;2023-04-25T04:51:19;100374.41;;;9.06;68.36
17764;BME280;22245;52.832;13.816;2023-04-25T04:54:54;100382.97;;;9.10;68.03
17764;BME280;22245;52.832;13.816;2023-04-25T04:58:27;100376.56;;;9.12;68.07
17764;BME280;22245;52.832;13.816;2023-04-25T05:02:08;100378.53;;;9.10;68.01
17764;BME280;22245;52.832;13.816;2023-04-25T05:05:42;100374.88;;;9.11;68.04
17764;BME280;22245;52.832;13.816;2023-04-25T05:09:03;100373.78;;;9.14;67.94
17764;BME280;22245;52.832;13.816;2023-04-25T05:12:51;100374.47;;;9.16;68.22
17764;BME280;22245;52.832;13.816;2023-04-25T05:16:37;100375.88;;;9.10;68.63
17764;BME280;22245;52.832;13.816;2023-04-25T05:20:17;100387.31;;;9.11;69.18
17764;BME280;22245;52.832;13.816;2023-04-25T05:23:59;100378.53;;;9.10;69.43
17764;BME280;22245;52.832;13.816;2023-04-25T05:27:40;100382.25;;;9.08;69.64
17764;BME280;22245;52.832;13.816;2023-04-25T05:31:15;100390.50;;;9.05;70.40
17764;BME280;22245;52.832;13.816;2023-04-25T05:34:52;100393.00;;;9.06;71.45
17764;BME280;22245;52.832;13.816;2023-04-25T05:38:19;100394.69;;;9.07;71.67
17764;BME280;22245;52.832;13.816;2023-04-25T05:42:01;100398.09;;;9.09;72.09
17764;BME280;22245;52.832;13.816;2023-04-25T05:45:42;100405.09;;;9.10;72.25
17764;BME280;22245;52.832;13.816;2023-04-25T05:49:21;100403.41;;;9.09;72.26
17764;BME280;22245;52.832;13.816;2023-04-25T05:53:12;100405.09;;;9.10;71.98
17764;BME280;22245;52.832;13.816;2023-04-25T05:56:36;100415.31;;;9.15;72.42
17764;BME280;22245;52.832;13.816;2023-04-25T05:59:59;100409.16;;;9.15;71.57
17764;BME280;22245;52.832;13.816;2023-04-25T06:03:33;100410.59;;;9.19;71.94
17764;BME280;22245;52.832;13.816;2023-04-25T06:06:55;100413.25;;;9.19;71.20
17764;BME280;22245;52.832;13.816;2023-04-25T06:10:16;100420.09;;;9.21;71.35
17764;BME280;22245;52.832;13.816;2023-04-25T06:13:39;100415.38;;;9.25;71.83
17764;BME280;22245;52.832;13.816;2023-04-25T06:17:02;100427.94;;;9.23;70.37
17764;BME280;22245;52.832;13.816;2023-04-25T06:20:26;100421.94;;;9.21;70.72
17764;BME280;22245;52.832;13.816;2023-04-25T06:23:50;100422.91;;;9.20;70.40
17764;BME280;22245;52.832;13.816;2023-04-25T06:27:15;100424.59;;;9.21;70.50
17764;BME280;22245;52.832;13.816;2023-04-25T06:30:36;100420.25;;;9.20;70.73
17764;BME280;22245;52.832;13.816;2023-04-25T06:34:03;100420.81;;;9.23;70.62
17764;BME280;22245;52.832;13.816;2023-04-25T06:37:29;100419.97;;;9.23;70.30
17764;BME280;22245;52.832;13.816;2023-04-25T06:40:50;100426.25;;;9.22;70.37
17764;BME280;22245;52.832;13.816;2023-04-25T06:44:12;100427.94;;;9.23;70.09
17764;BME280;22245;52.832;13.816;2023-04-25T06:47:43;100430.47;;;9.24;70.42
17764;BME280;22245;52.832;13.816;2023-04-25T06:51:06;100430.88;;;9.20;70.43
17764;BME280;22245;52.832;13.816;2023-04-25T06:54:29;100425.22;;;9.13;70.70
17764;BME280;22245;52.832;13.816;2023-04-25T06:58:00;100426.34;;;9.10;70.53
17764;BME280;22245;52.832;13.816;2023-04-25T07:01:44;100417.41;;;9.11;71.12
17764;BME280;22245;52.832;13.816;2023-04-25T07:05:12;100423.41;;;9.14;71.06
17764;BME280;22245;52.832;13.816;2023-04-25T07:08:35;100423.41;;;9.14;71.45
17764;BME280;22245;52.832;13.816;2023-04-25T07:11:57;100425.22;;;9.13;71.33
17764;BME280;22245;52.832;13.816;2023-04-25T07:15:19;100431.88;;;9.07;71.70
17764;BME280;22245;52.832;13.816;2023-04-25T07:18:42;100432.13;;;9.04;72.06
17764;BME280;22245;52.832;13.816;2023-04-25T07:22:04;100450.03;;;9.02;72.43
17764;BME280;22245;52.832;13.816;2023-04-25T07:25:29;100452.81;;;9.01;72.93
17764;BME280;22245;52.832;13.816;2023-04-25T07:28:50;100454.88;;;8.97;73.78
17764;BME280;22245;52.832;13.816;2023-04-25T07:32:12;100458.06;;;8.91;74.82
17764;BME280;22245;52.832;13.816;2023-04-25T07:35:35;100458.31;;;8.88;75.50
17764;BME280;22245;52.832;13.816;2023-04-25T07:38:57;100459.28;;;8.87;76.54
17764;BME280;22245;52.832;13.816;2023-04-25T07:42:20;100469.03;;;8.86;77.04
17764;BME280;22245;52.832;13.816;2023-04-25T07:45:42;100467.50;;;8.83;77.56
17764;BME280;22245;52.832;13.816;2023-04-25T07:49:04;100472.59;;;8.75;77.85
17764;BME280;22245;52.832;13.816;2023-04-25T07:52:26;100474.16;;;8.78;78.82
17764;BME280;22245;52.832;13.816;2023-04-25T07:55:55;100477.41;;;8.81;78.99
17764;BME280;22245;52.832;13.816;2023-04-25T07:59:19;100472.66;;;8.85;78.84
17764;BME280;22245;52.832;13.816;2023-04-25T08:02:40;100481.25;;;8.89;79.22
17764;BME280;22245;52.832;13.816;2023-04-25T08:06:07;100486.28;;;8.92;78.39
17764;BME280;22245;52.832;13.816;2023-04-25T08:09:40;100494.72;;;8.97;78.48
17764;BME280;22245;52.832;13.816;2023-04-25T08:13:08;100512.22;;;9.00;79.28
17764;BME280;22245;52.832;13.816;2023-04-25T08:16:32;100523.00;;;8.87;78.07
17764;BME280;22245;52.832;13.816;2023-04-25T08:19:55;100516.78;;;8.65;78.73
17764;BME280;22245;52.832;13.816;2023-04-25T08:23:22;100524.28;;;8.60;79.31
17764;BME280;22245;52.832;13.816;2023-04-25T08:26:46;100524.28;;;8.60;78.78
17764;BME280;22245;52.832;13.816;2023-04-25T08:30:11;100533.22;;;8.59;75.91
17764;BME280;22245;52.832;13.816;2023-04-25T08:33:35;100540.94;;;8.62;76.81
17764;BME280;22245;52.832;13.816;2023-04-25T08:37:14;100546.84;;;8.65;75.96
17764;BME280;22245;52.832;13.816;2023-04-25T08:40:50;100545.41;;;8.61;72.11
17764;BME280;22245;52.832;13.816;2023-04-25T08:44:13;100549.84;;;8.61;71.26
17764;BME280;22245;52.832;13.816;2023-04-25T08:47:37;100564.25;;;8.58;69.35
17764;BME280;22245;52.832;13.816;2023-04-25T08:51:02;100554.09;;;8.63;70.45
17764;BME280;22245;52.832;13.816;2023-04-25T08:54:25;100560.13;;;8.65;67.80
17764;BME280;22245;52.832;13.816;2023-04-25T08:57:57;100559.97;;;8.67;68.09
17764;BME280;22245;52.832;13.816;2023-04-25T09:01:22;100559.97;;;8.78;66.83
17764;BME280;22245;52.832;13.816;2023-04-25T09:04:46;100562.59;;;8.90;66.47
17764;BME280;22245;52.832;13.816;2023-04-25T09:08:09;100565.47;;;8.98;65.10
17764;BME280;22245;52.832;13.816;2023-04-25T09:11:30;100562.69;;;9.00;63.61
17764;BME280;22245;52.832;13.816;2023-04-25T09:15:06;100571.00;;;9.06;65.03
17764;BME280;22245;52.832;13.816;2023-04-25T09:18:57;100576.19;;;9.08;62.50
17764;BME280;22245;52.832;13.816;2023-04-25T09:22:19;100581.75;;;9.05;62.45
17764;BME280;22245;52.832;13.816;2023-04-25T09:25:47;100574.63;;;9.05;62.06
17764;BME280;22245;52.832;13.816;2023-04-25T09:29:09;100573.88;;;9.15;62.13
17764;BME280;22245;52.832;13.816;2023-04-25T09:32:33;100573.13;;;9.24;61.80
17764;BME280;22245;52.832;13.816;2023-04-25T09:36:02;100564.13;;;9.36;58.99
17764;BME280;22245;52.832;13.816;2023-04-25T09:39:44;100575.44;;;9.50;59.27
17764;BME280;22245;52.832;13.816;2023-04-25T09:43:10;100577.69;;;9.54;57.36
17764;BME280;22245;52.832;13.816;2023-04-25T09:46:39;100579.66;;;9.52;57.59
17764;BME280;22245;52.832;13.816;2023-04-25T09:50:14;100585.81;;;9.53;55.98
17764;BME280;22245;52.832;13.816;2023-04-25T09:53:42;100576.00;;;9.53;56.07
17764;BME280;22245;52.832;13.816;2023-04-25T09:57:14;100567.13;;;9.64;54.50
17764;BME280;22245;52.832;13.816;2023-04-25T10:00:39;100575.19;;;9.74;54.63
17764;BME280;22245;52.832;13.816;2023-04-25T10:04:16;100567.72;;;9.89;53.20
17764;BME280;22245;52.832;13.816;2023-04-25T10:08:11;100576.34;;;10.03;50.99
17764;BME280;22245;52.832;13.816;2023-04-25T10:11:34;100579.13;;;10.01;47.56
17764;BME280;22245;52.832;13.816;2023-04-25T10:14:57;100587.25;;;9.99;46.25
17764;BME280;22245;52.832;13.816;2023-04-25T10:18:21;100588.06;;;10.00;47.09
17764;BME280;22245;52.832;13.816;2023-04-25T10:21:48;100592.03;;;10.06;46.83
17764;BME280;22245;52.832;13.816;2023-04-25T10:25:11;100608.00;;;10.06;45.98
17764;BME280;22245;52.832;13.816;2023-04-25T10:28:55;100596.38;;;10.07;46.32
17764;BME280;22245;52.832;13.816;2023-04-25T10:32:17;100597.50;;;10.04;44.99
17764;BME280;22245;52.832;13.816;2023-04-25T10:35:40;100582.25;;;10.06;45.36
17764;BME280;22245;52.832;13.816;2023-04-25T10:39:04;100586.19;;;10.12;45.29
17764;BME280;22245;52.832;13.816;2023-04-25T10:42:28;100595.63;;;10.26;45.98
17764;BME280;22245;52.832;13.816;2023-04-25T10:45:53;100592.88;;;10.37;45.35
17764;BME280;22245;52.832;13.816;2023-04-25T10:49:32;100610.31;;;10.41;45.77
17764;BME280;22245;52.832;13.816;2023-04-25T10:53:14;100610.69;;;10.37;45.42
17764;BME280;22245;52.832;13.816;2023-04-25T10:56:37;100619.75;;;10.24;45.29
17764;BME280;22245;52.832;13.816;2023-04-25T11:00:11;100626.69;;;10.16;45.62
17764;BME280;22245;52.832;13.816;2023-04-25T11:03:38;100638.31;;;10.14;45.38
17764;BME280;22245;52.832;13.816;2023-04-25T11:07:13;100625.66;;;10.07;45.19
17764;BME280;22245;52.832;13.816;2023-04-25T11:10:41;100631.22;;;10.04;45.80
17764;BME280;22245;52.832;13.816;2023-04-25T11:14:03;100631.56;;;10.10;45.90
17764;BME280;22245;52.832;13.816;2023-04-25T11:17:25;100634.25;;;10.20;46.16
17764;BME280;22245;52.832;13.816;2023-04-25T11:20:47;100637.97;;;10.29;43.79
17764;BME280;22245;52.832;13.816;2023-04-25T11:24:10;100643.03;;;10.32;43.92
17764;BME280;22245;52.832;13.816;2023-04-25T11:27:33;100645.28;;;10.37;42.45
17764;BME280;22245;52.832;13.816;2023-04-25T11:30:55;100637.31;;;10.37;42.37
17764;BME280;22245;52.832;13.816;2023-04-25T11:34:17;100648.44;;;10.42;44.08
17764;BME280;22245;52.832;13.816;2023-04-25T11:37:39;100650.56;;;10.48;42.69
17764;BME280;22245;52.832;13.816;2023-04-25T11:41:01;100666.34;;;10.40;43.34
17764;BME280;22245;52.832;13.816;2023-04-25T11:44:25;100668.94;;;10.30;44.47
17764;BME280;22245;52.832;13.816;2023-04-25T11:47:46;100668.38;;;10.26;43.78
17764;BME280;22245;52.832;13.816;2023-04-25T11:51:09;100676.53;;;10.13;44.09
17764;BME280;22245;52.832;13.816;2023-04-25T11:54:30;100667.41;;;10.06;43.57
17764;BME280;22245;52.832;13.816;2023-04-25T11:57:52;100674.91;;;10.01;44.52
17764;BME280;22245;52.832;13.816;2023-04-25T12:01:28;100679.19;;;9.92;43.68
17764;BME280;22245;52.832;13.816;2023-04-25T12:04:59;100678.22;;;9.93;44.25
17764;BME280;22245;52.832;13.816;2023-04-25T12:08:35;100688.00;;;9.93;43.71
17764;BME280;22245;52.832;13.816;2023-04-25T12:11:58;100703.41;;;9.89;43.27
17764;BME280;22245;52.832;13.816;2023-04-25T12:15:24;100708.38;;;9.82;43.21
17764;BME280;22245;52.832;13.816;2023-04-25T12:18:51;100703.22;;;9.69;43.53
17764;BME280;22245;52.832;13.816;2023-04-25T12:22:21;100713.25;;;9.66;42.61
17764;BME280;22245;52.832;13.816;2023-04-25T12:25:44;100714.63;;;9.60;42.97
17764;BME280;22245;52.832;13.816;2023-04-25T12:29:15;100711.81;;;9.62;41.97
17764;BME280;22245;52.832;13.816;2023-04-25T12:32:37;100705.41;;;9.64;43.70
17764;BME280;22245;52.832;13.816;2023-04-25T12:36:02;100717.47;;;9.68;43.32
17764;BME280;22245;52.832;13.816;2023-04-25T12:39:28;100732.22;;;9.73;43.33
17764;BME280;22245;52.832;13.816;2023-04-25T12:42:50;100717.38;;;9.70;43.52
17764;BME280;22245;52.832;13.816;2023-04-25T12:46:11;100739.47;;;9.70;44.21
17764;BME280;22245;52.832;13.816;2023-04-25T12:49:33;100728.25;;;9.67;43.44
17764;BME280;22245;52.832;13.816;2023-04-25T12:52:56;100726.22;;;9.59;43.53
17764;BME280;22245;52.832;13.816;2023-04-25T12:56:18;100728.41;;;9.54;44.41
17764;BME280;22245;52.832;13.816;2023-04-25T12:59:43;100745.59;;;9.50;44.64
17764;BME280;22245;52.832;13.816;2023-04-25T13:03:05;100733.25;;;9.49;44.92
17764;BME280;22245;52.832;13.816;2023-04-25T13:06:27;100735.78;;;9.50;45.57
17764;BME280;22245;52.832;13.816;2023-04-25T13:09:51;100741.00;;;9.40;45.59
17764;BME280;22245;52.832;13.816;2023-04-25T13:13:13;100733.88;;;9.41;45.87
17764;BME280;22245;52.832;13.816;2023-04-25T13:16:34;100744.38;;;9.43;45.35
17764;BME280;22245;52.832;13.816;2023-04-25T13:19:55;100739.56;;;9.48;46.60
17764;BME280;22245;52.832;13.816;2023-04-25T13:23:17;100731.41;;;9.61;46.87
17764;BME280;22245;52.832;13.816;2023-04-25T13:26:39;100727.16;;;9.69;46.40
17764;BME280;22245;52.832;13.816;2023-04-25T13:30:02;100725.41;;;9.80;45.49
17764;BME280;22245;52.832;13.816;2023-04-25T13:33:27;100724.44;;;9.81;44.79
17764;BME280;22245;52.832;13.816;2023-04-25T13:36:49;100728.56;;;9.85;46.12
17764;BME280;22245;52.832;13.816;2023-04-25T13:40:11;100736.91;;;9.80;44.46
17764;BME280;22245;52.832;13.816;2023-04-25T13:43:34;100738.97;;;9.77;44.99
17764;BME280;22245;52.832;13.816;2023-04-25T13:46:56;100744.06;;;9.68;45.76
17764;BME280;22245;52.832;13.816;2023-04-25T13:50:19;100758.84;;;9.61;46.22
17764;BME280;22245;52.832;13.816;2023-04-25T13:53:41;100756.56;;;9.56;47.08
17764;BME280;22245;52.832;13.816;2023-04-25T13:57:02;100762.50;;;9.49;45.70
17764;BME280;22245;52.832;13.816;2023-04-25T14:00:26;100762.25;;;9.40;45.56
17764;BME280;22245;52.832;13.816;2023-04-25T14:03:48;100767.81;;;9.37;46.82
17764;BME280;22245;52.832;13.816;2023-04-25T14:07:10;100762.50;;;9.37;47.58
17764;BME280;22245;52.832;13.816;2023-04-25T14:10:32;100774.00;;;9.38;47.86
17764;BME280;22245;52.832;13.816;2023-04-25T14:13:54;100787.03;;;9.41;49.23
17764;BME280;22245;52.832;13.816;2023-04-25T14:17:16;100771.91;;;9.41;49.11
17764;BME280;22245;52.832;13.816;2023-04-25T14:20:38;100763.47;;;9.48;49.11
17764;BME280;22245;52.832;13.816;2023-04-25T14:24:00;100775.66;;;9.50;50.13
17764;BME280;22245;52.832;13.816;2023-04-25T14:27:22;100776.38;;;9.52;49.79
17764;BME280;22245;52.832;13.816;2023-04-25T14:30:44;100781.69;;;9.52;49.52
17764;BME280;22245;52.832;13.816;2023-04-25T14:34:07;100776.38;;;9.52;49.64
17764;BME280;22245;52.832;13.816;2023-04-25T14:37:29;100778.94;;;9.54;49.38
17764;BME280;22245;52.832;13.816;2023-04-25T14:40:51;100776.75;;;9.59;50.17
17764;BME280;22245;52.832;13.816;2023-04-25T14:44:14;100776.25;;;9.65;48.86
17764;BME280;22245;52.832;13.816;2023-04-25T14:47:36;100771.53;;;9.69;48.75
17764;BME280;22245;52.832;13.816;2023-04-25T14:50:59;100769.38;;;10.28;46.94
17764;BME280;22245;52.832;13.816;2023-04-25T14:54:21;100768.56;;;10.49;46.80
17764;BME280;22245;52.832;13.816;2023-04-25T14:57:42;100757.06;;;10.48;46.52
17764;BME280;22245;52.832;13.816;2023-04-25T15:01:04;100764.25;;;10.79;46.56
17764;BME280;22245;52.832;13.816;2023-04-25T15:04:26;100767.84;;;11.81;44.80
17764;BME280;22245;52.832;13.816;2023-04-25T15:07:50;100767.66;;;11.72;42.93
17764;BME280;22245;52.832;13.816;2023-04-25T15:11:11;100756.41;;;11.59;44.84
17764;BME280;22245;52.832;13.816;2023-04-25T15:14:33;100760.88;;;11.49;45.22
17764;BME280;22245;52.832;13.816;2023-04-25T15:17:56;100772.63;;;11.26;43.26
17764;BME280;22245;52.832;13.816;2023-04-25T15:21:19;100776.72;;;10.99;43.63
17764;BME280;22245;52.832;13.816;2023-04-25T15:24:42;100767.31;;;10.74;44.80
17764;BME280;22245;52.832;13.816;2023-04-25T15:28:03;100762.66;;;10.66;44.92
17764;BME280;22245;52.832;13.816;2023-04-25T15:31:24;100777.47;;;10.59;44.67
17764;BME280;22245;52.832;13.816;2023-04-25T15:34:46;100775.44;;;10.51;45.36
17764;BME280;22245;52.832;13.816;2023-04-25T15:38:08;100778.91;;;10.42;43.73
17764;BME280;22245;52.832;13.816;2023-04-25T15:41:32;100783.00;;;10.35;44.44
17764;BME280;22245;52.832;13.816;2023-04-25T15:44:54;100782.81;;;10.26;44.73
17764;BME280;22245;52.832;13.816;2023-04-25T15:48:15;100787.66;;;10.21;45.54
17764;BME280;22245;52.832;13.816;2023-04-25T15:51:36;100779.22;;;10.16;45.54
17764;BME280;22245;52.832;13.816;2023-04-25T15:54:58;100782.28;;;10.11;45.58
17764;BME280;22245;52.832;13.816;2023-04-25T15:58:22;100797.63;;;10.08;46.38
17764;BME280;22245;52.832;13.816;2023-04-25T16:01:43;100798.97;;;10.02;46.10
17764;BME280;22245;52.832;13.816;2023-04-25T16:05:05;100805.66;;;9.96;46.91
17764;BME280;22245;52.832;13.816;2023-04-25T16:08:28;100804.81;;;9.96;47.13
17764;BME280;22245;52.832;13.816;2023-04-25T16:11:53;100814.72;;;9.94;47.10
17764;BME280;22245;52.832;13.816;2023-04-25T16:15:16;100808.38;;;9.85;47.52
17764;BME280;22245;52.832;13.816;2023-04-25T16:18:39;100827.00;;;9.85;48.50
17764;BME280;22245;52.832;13.816;2023-04-25T16:22:00;100825.78;;;9.66;49.79
17764;BME280;22245;52.832;13.816;2023-04-25T16:25:22;100842.84;;;9.52;51.46
17764;BME280;22245;52.832;13.816;2023-04-25T16:28:44;100833.31;;;9.38;53.18
17764;BME280;22245;52.832;13.816;2023-04-25T16:32:07;100843.22;;;9.25;54.11
17764;BME280;22245;52.832;13.816;2023-04-25T16:35:28;100844.44;;;9.21;55.48
17764;BME280;22245;52.832;13.816;2023-04-25T16:38:51;100830.28;;;9.09;54.06
17764;BME280;22245;52.832;13.816;2023-04-25T16:42:13;100828.69;;;9.06;55.33
17764;BME280;22245;52.832;13.816;2023-04-25T16:45:36;100833.41;;;9.03;55.38
17764;BME280;22245;52.832;13.816;2023-04-25T16:48:59;100827.75;;;9.19;55.13
17764;BME280;22245;52.832;13.816;2023-04-25T16:52:20;100837.16;;;9.34;54.99
17764;BME280;22245;52.832;13.816;2023-04-25T16:55:43;100835.25;;;9.36;55.09
17764;BME280;22245;52.832;13.816;2023-04-25T16:59:06;100833.78;;;9.32;55.10
17764;BME280;22245;52.832;13.816;2023-04-25T17:02:28;100833.78;;;9.32;55.50
17764;BME280;22245;52.832;13.816;2023-04-25T17:05:52;100838.88;;;9.35;55.96
17764;BME280;22245;52.832;13.816;2023-04-25T17:09:15;100841.53;;;9.35;54.93
17764;BME280;22245;52.832;13.816;2023-04-25T17:12:37;100846.81;;;9.47;55.11
17764;BME280;22245;52.832;13.816;2023-04-25T17:15:58;100850.09;;;9.50;53.59
17764;BME280;22245;52.832;13.816;2023-04-25T17:19:20;100848.63;;;9.58;53.94
17764;BME280;22245;52.832;13.816;2023-04-25T17:22:43;100851.66;;;9.64;53.35
17764;BME280;22245;52.832;13.816;2023-04-25T17:26:05;100849.00;;;9.64;52.75
17764;BME280;22245;52.832;13.816;2023-04-25T17:29:26;100841.28;;;9.61;51.84
17764;BME280;22245;52.832;13.816;2023-04-25T17:32:47;100857.97;;;9.63;52.82
17764;BME280;22245;52.832;13.816;2023-04-25T17:36:09;100852.50;;;9.53;51.52
17764;BME280;22245;52.832;13.816;2023-04-25T17:39:32;100854.81;;;9.47;52.31
17764;BME280;22245;52.832;13.816;2023-04-25T17:42:53;100852.28;;;9.45;52.68
17764;BME280;22245;52.832;13.816;2023-04-25T17:46:15;100854.56;;;9.38;52.36
17764;BME280;22245;52.832;13.816;2023-04-25T17:49:37;100860.63;;;9.29;52.23